sensor_id;sensor_type;location;lat;lon;timestamp;P1;durP1;ratioP1;P2;durP2;ratioP2
42590;SDS011;28218;53.342;-6.216;2023-04-25T00:02:07;3.83;;;1.65;;
42590;SDS011;28218;53.342;-6.216;2023-04-25T00:04:35;7.28;;;1.35;;
42590;SDS011;28218;53.342;-6.216;2023-04-25T00:07:05;2.58;;;1.73;;
42590;SDS011;28218;53.342;-6.216;2023-04-25T00:09:34;4.63;;;1.40;;
42590;SDS011;28218;53.342;-6.216;2023-04-25T00:12:03;3.83;;;1.38;;
42590;SDS011;28218;53.342;-6.216;2023-04-25T00:14:31;1.65;;;1.02;;
42590;SDS011;28218;53.342;-6.216;2023-04-25T00:17:02;3.58;;;1.10;;
42590;SDS011;28218;53.342;-6.216;2023-04-25T00:19:30;5.28;;;1.17;;
42590;SDS011;28218;53.342;-6.216;2023-04-25T00:21:59;5.72;;;1.58;;
42590;SDS011;28218;53.342;-6.216;2023-04-25T00:24:27;3.00;;;0.90;;
42590;SDS011;28218;53.342;-6.216;2023-04-25T00:26:56;3.22;;;1.38;;
42590;SDS011;28218;53.342;-6.216;2023-04-25T00:29:25;11.52;;;6.20;;
42590;SDS011;28218;53.342;-6.216;2023-04-25T00:31:53;18.17;;;11.68;;
42590;SDS011;28218;53.342;-6.216;2023-04-25T00:34:21;17.70;;;10.35;;
42590;SDS011;28218;53.342;-6.216;2023-04-25T00:36:50;15.70;;;9.50;;
42590;SDS011;28218;53.342;-6.216;2023-04-25T00:39:18;15.68;;;8.50;;
42590;SDS011;28218;53.342;-6.216;2023-04-25T00:41:47;16.00;;;8.65;;
42590;SDS011;28218;53.342;-6.216;2023-04-25T00:44:21;10.15;;;7.78;;
42590;SDS011;28218;53.342;-6.216;2023-04-25T00:46:50;12.18;;;6.43;;
42590;SDS011;28218;53.342;-6.216;2023-04-25T00:49:19;11.63;;;6.28;;
42590;SDS011;28218;53.342;-6.216;2023-04-25T00:51:47;7.57;;;4.25;;
42590;SDS011;28218;53.342;-6.216;2023-04-25T00:54:16;6.80;;;3.45;;
42590;SDS011;28218;53.342;-6.216;2023-04-25T00:56:44;5.68;;;3.30;;
42590;SDS011;28218;53.342;-6.216;2023-04-25T00:59:13;5.22;;;2.88;;
42590;SDS011;28218;53.342;-6.216;2023-04-25T01:01:44;3.08;;;2.25;;
42590;SDS011;28218;53.342;-6.216;2023-04-25T01:04:13;3.55;;;2.22;;
42590;SDS011;28218;53.342;-6.216;2023-04-25T01:06:41;4.38;;;1.70;;
42590;SDS011;28218;53.342;-6.216;2023-04-25T01:09:10;4.40;;;1.52;;
42590;SDS011;28218;53.342;-6.216;2023-04-25T01:11:39;2.00;;;1.38;;
42590;SDS011;28218;53.342;-6.216;2023-04-25T01:14:07;3.20;;;1.23;;
42590;SDS011;28218;53.342;-6.216;2023-04-25T01:16:36;3.13;;;1.52;;
42590;SDS011;28218;53.342;-6.216;2023-04-25T01:19:06;2.60;;;2.08;;
42590;SDS011;28218;53.342;-6.216;2023-04-25T01:21:40;2.35;;;1.70;;
42590;SDS011;28218;53.342;-6.216;2023-04-25T01:24:08;2.55;;;1.50;;
42590;SDS011;28218;53.342;-6.216;2023-04-25T01:26:36;4.10;;;1.95;;
42590;SDS011;28218;53.342;-6.216;2023-04-25T01:29:07;5.03;;;1.88;;
42590;SDS011;28218;53.342;-6.216;2023-04-25T01:31:35;7.10;;;2.05;;
42590;SDS011;28218;53.342;-6.216;2023-04-25T01:34:04;2.45;;;1.88;;
42590;SDS011;28218;53.342;-6.216;2023-04-25T01:36:32;5.10;;;2.08;;
42590;SDS011;28218;53.342;-6.216;2023-04-25T01:39:03;3.22;;;1.98;;
42590;SDS011;28218;53.342;-6.216;2023-04-25T01:41:33;3.78;;;1.58;;
42590;SDS011;28218;53.342;-6.216;2023-04-25T01:44:02;3.05;;;2.10;;
42590;SDS011;28218;53.342;-6.216;2023-04-25T01:46:30;3.15;;;1.95;;
42590;SDS011;28218;53.342;-6.216;2023-04-25T01:48:59;4.15;;;2.00;;
42590;SDS011;28218;53.342;-6.216;2023-04-25T01:51:27;6.18;;;2.22;;
42590;SDS011;28218;53.342;-6.216;2023-04-25T01:53:56;4.22;;;2.00;;
42590;SDS011;28218;53.342;-6.216;2023-04-25T01:56:31;4.68;;;2.05;;
42590;SDS011;28218;53.342;-6.216;2023-04-25T01:58:59;3.20;;;2.28;;
42590;SDS011;28218;53.342;-6.216;2023-04-25T02:01:28;4.32;;;2.08;;
42590;SDS011;28218;53.342;-6.216;2023-04-25T02:03:56;5.20;;;2.10;;
42590;SDS011;28218;53.342;-6.216;2023-04-25T02:06:25;2.72;;;1.80;;
42590;SDS011;28218;53.342;-6.216;2023-04-25T02:08:54;5.07;;;2.30;;
42590;SDS011;28218;53.342;-6.216;2023-04-25T02:11:22;6.78;;;3.00;;
42590;SDS011;28218;53.342;-6.216;2023-04-25T02:13:52;4.22;;;2.55;;
42590;SDS011;28218;53.342;-6.216;2023-04-25T02:16:20;3.63;;;2.38;;
42590;SDS011;28218;53.342;-6.216;2023-04-25T02:18:48;4.75;;;2.22;;
42590;SDS011;28218;53.342;-6.216;2023-04-25T02:21:19;6.78;;;2.63;;
42590;SDS011;28218;53.342;-6.216;2023-04-25T02:23:47;5.40;;;3.15;;
42590;SDS011;28218;53.342;-6.216;2023-04-25T02:26:18;5.20;;;2.90;;
42590;SDS011;28218;53.342;-6.216;2023-04-25T02:28:47;3.08;;;2.70;;
42590;SDS011;28218;53.342;-6.216;2023-04-25T02:31:17;7.40;;;3.35;;
42590;SDS011;28218;53.342;-6.216;2023-04-25T02:33:45;16.33;;;2.95;;
42590;SDS011;28218;53.342;-6.216;2023-04-25T02:36:14;5.50;;;2.85;;
42590;SDS011;28218;53.342;-6.216;2023-04-25T02:38:42;4.28;;;2.92;;
42590;SDS011;28218;53.342;-6.216;2023-04-25T02:41:10;4.70;;;2.97;;
42590;SDS011;28218;53.342;-6.216;2023-04-25T02:43:39;7.90;;;2.55;;
42590;SDS011;28218;53.342;-6.216;2023-04-25T02:46:07;6.15;;;2.70;;
42590;SDS011;28218;53.342;-6.216;2023-04-25T02:48:37;4.32;;;2.85;;
42590;SDS011;28218;53.342;-6.216;2023-04-25T02:51:05;4.57;;;2.60;;
42590;SDS011;28218;53.342;-6.216;2023-04-25T02:53:34;2.78;;;2.53;;
42590;SDS011;28218;53.342;-6.216;2023-04-25T02:56:02;5.50;;;2.88;;
42590;SDS011;28218;53.342;-6.216;2023-04-25T02:58:31;8.75;;;2.70;;
42590;SDS011;28218;53.342;-6.216;2023-04-25T03:00:59;5.90;;;2.67;;
42590;SDS011;28218;53.342;-6.216;2023-04-25T03:03:27;4.40;;;3.00;;
42590;SDS011;28218;53.342;-6.216;2023-04-25T03:05:57;5.35;;;2.83;;
42590;SDS011;28218;53.342;-6.216;2023-04-25T03:08:25;8.43;;;2.72;;
42590;SDS011;28218;53.342;-6.216;2023-04-25T03:10:58;5.82;;;2.80;;
42590;SDS011;28218;53.342;-6.216;2023-04-25T03:13:27;6.47;;;3.67;;
42590;SDS011;28218;53.342;-6.216;2023-04-25T03:15:56;3.40;;;2.05;;
42590;SDS011;28218;53.342;-6.216;2023-04-25T03:18:24;4.15;;;2.30;;
42590;SDS011;28218;53.342;-6.216;2023-04-25T03:20:53;4.47;;;2.08;;
42590;SDS011;28218;53.342;-6.216;2023-04-25T03:23:23;6.75;;;2.72;;
42590;SDS011;28218;53.342;-6.216;2023-04-25T03:25:51;8.02;;;1.65;;
42590;SDS011;28218;53.342;-6.216;2023-04-25T03:28:19;4.65;;;1.58;;
42590;SDS011;28218;53.342;-6.216;2023-04-25T03:30:48;7.93;;;2.95;;
42590;SDS011;28218;53.342;-6.216;2023-04-25T03:33:16;6.22;;;2.47;;
42590;SDS011;28218;53.342;-6.216;2023-04-25T03:35:44;4.03;;;1.92;;
42590;SDS011;28218;53.342;-6.216;2023-04-25T03:38:12;7.25;;;2.08;;
42590;SDS011;28218;53.342;-6.216;2023-04-25T03:40:42;4.72;;;1.95;;
42590;SDS011;28218;53.342;-6.216;2023-04-25T03:43:10;7.35;;;2.17;;
42590;SDS011;28218;53.342;-6.216;2023-04-25T03:45:39;6.60;;;1.83;;
42590;SDS011;28218;53.342;-6.216;2023-04-25T03:48:07;4.47;;;2.05;;
42590;SDS011;28218;53.342;-6.216;2023-04-25T03:50:35;8.50;;;2.30;;
42590;SDS011;28218;53.342;-6.216;2023-04-25T03:53:04;7.65;;;2.35;;
42590;SDS011;28218;53.342;-6.216;2023-04-25T03:55:32;10.63;;;2.38;;
42590;SDS011;28218;53.342;-6.216;2023-04-25T03:58:02;8.05;;;2.60;;
42590;SDS011;28218;53.342;-6.216;2023-04-25T04:00:30;3.88;;;2.03;;
42590;SDS011;28218;53.342;-6.216;2023-04-25T04:02:58;5.63;;;2.05;;
42590;SDS011;28218;53.342;-6.216;2023-04-25T04:05:27;7.18;;;2.05;;
42590;SDS011;28218;53.342;-6.216;2023-04-25T04:07:55;6.82;;;2.30;;
42590;SDS011;28218;53.342;-6.216;2023-04-25T04:10:23;5.25;;;2.60;;
42590;SDS011;28218;53.342;-6.216;2023-04-25T04:12:52;6.85;;;2.95;;
42590;SDS011;28218;53.342;-6.216;2023-04-25T04:15:22;4.97;;;3.22;;
42590;SDS011;28218;53.342;-6.216;2023-04-25T04:17:50;5.07;;;3.25;;
42590;SDS011;28218;53.342;-6.216;2023-04-25T04:20:18;10.95;;;4.22;;
42590;SDS011;28218;53.342;-6.216;2023-04-25T04:22:47;9.50;;;4.32;;
42590;SDS011;28218;53.342;-6.216;2023-04-25T04:25:15;6.43;;;4.50;;
42590;SDS011;28218;53.342;-6.216;2023-04-25T04:27:44;6.93;;;4.18;;
42590;SDS011;28218;53.342;-6.216;2023-04-25T04:30:12;7.40;;;4.32;;
42590;SDS011;28218;53.342;-6.216;2023-04-25T04:32:43;7.03;;;4.50;;
42590;SDS011;28218;53.342;-6.216;2023-04-25T04:35:11;9.85;;;5.78;;
42590;SDS011;28218;53.342;-6.216;2023-04-25T04:37:40;10.02;;;4.72;;
42590;SDS011;28218;53.342;-6.216;2023-04-25T04:40:08;9.82;;;5.38;;
42590;SDS011;28218;53.342;-6.216;2023-04-25T04:42:37;10.05;;;5.18;;
42590;SDS011;28218;53.342;-6.216;2023-04-25T04:45:06;10.63;;;5.40;;
42590;SDS011;28218;53.342;-6.216;2023-04-25T04:47:35;8.80;;;4.45;;
42590;SDS011;28218;53.342;-6.216;2023-04-25T04:50:05;9.00;;;4.85;;
42590;SDS011;28218;53.342;-6.216;2023-04-25T04:52:35;9.45;;;4.93;;
42590;SDS011;28218;53.342;-6.216;2023-04-25T04:55:04;7.20;;;4.68;;
42590;SDS011;28218;53.342;-6.216;2023-04-25T04:57:34;7.07;;;4.40;;
42590;SDS011;28218;53.342;-6.216;2023-04-25T05:00:03;6.03;;;4.10;;
42590;SDS011;28218;53.342;-6.216;2023-04-25T05:02:34;5.72;;;3.90;;
42590;SDS011;28218;53.342;-6.216;2023-04-25T05:05:03;10.88;;;4.70;;
42590;SDS011;28218;53.342;-6.216;2023-04-25T05:07:34;9.52;;;4.15;;
42590;SDS011;28218;53.342;-6.216;2023-04-25T05:10:02;9.60;;;4.70;;
42590;SDS011;28218;53.342;-6.216;2023-04-25T05:12:31;5.40;;;4.00;;
42590;SDS011;28218;53.342;-6.216;2023-04-25T05:15:02;8.75;;;4.45;;
42590;SDS011;28218;53.342;-6.216;2023-04-25T05:17:30;8.93;;;5.65;;
42590;SDS011;28218;53.342;-6.216;2023-04-25T05:19:59;8.65;;;4.43;;
42590;SDS011;28218;53.342;-6.216;2023-04-25T05:22:29;7.25;;;4.60;;
42590;SDS011;28218;53.342;-6.216;2023-04-25T05:24:58;9.00;;;5.50;;
42590;SDS011;28218;53.342;-6.216;2023-04-25T05:27:26;6.85;;;4.60;;
42590;SDS011;28218;53.342;-6.216;2023-04-25T05:29:54;9.60;;;5.47;;
42590;SDS011;28218;53.342;-6.216;2023-04-25T05:32:22;7.60;;;4.82;;
42590;SDS011;28218;53.342;-6.216;2023-04-25T05:34:51;8.90;;;4.43;;
42590;SDS011;28218;53.342;-6.216;2023-04-25T05:37:20;8.35;;;4.82;;
42590;SDS011;28218;53.342;-6.216;2023-04-25T05:39:52;8.80;;;4.95;;
42590;SDS011;28218;53.342;-6.216;2023-04-25T05:42:20;7.75;;;5.50;;
42590;SDS011;28218;53.342;-6.216;2023-04-25T05:44:49;7.38;;;4.93;;
42590;SDS011;28218;53.342;-6.216;2023-04-25T05:47:17;8.75;;;5.10;;
42590;SDS011;28218;53.342;-6.216;2023-04-25T05:49:45;8.85;;;5.18;;
42590;SDS011;28218;53.342;-6.216;2023-04-25T05:52:14;11.93;;;5.03;;
42590;SDS011;28218;53.342;-6.216;2023-04-25T05:54:42;9.85;;;5.05;;
42590;SDS011;28218;53.342;-6.216;2023-04-25T05:57:19;8.55;;;5.18;;
42590;SDS011;28218;53.342;-6.216;2023-04-25T05:59:48;9.07;;;5.55;;
42590;SDS011;28218;53.342;-6.216;2023-04-25T06:02:17;13.95;;;4.43;;
42590;SDS011;28218;53.342;-6.216;2023-04-25T06:04:45;8.23;;;4.55;;
42590;SDS011;28218;53.342;-6.216;2023-04-25T06:07:14;14.52;;;5.13;;
42590;SDS011;28218;53.342;-6.216;2023-04-25T06:09:42;9.48;;;5.55;;
42590;SDS011;28218;53.342;-6.216;2023-04-25T06:12:11;13.88;;;6.35;;
42590;SDS011;28218;53.342;-6.216;2023-04-25T06:14:40;13.38;;;5.47;;
42590;SDS011;28218;53.342;-6.216;2023-04-25T06:17:08;8.82;;;5.30;;
42590;SDS011;28218;53.342;-6.216;2023-04-25T06:19:37;8.80;;;4.05;;
42590;SDS011;28218;53.342;-6.216;2023-04-25T06:22:05;9.63;;;4.78;;
42590;SDS011;28218;53.342;-6.216;2023-04-25T06:24:34;6.38;;;3.90;;
42590;SDS011;28218;53.342;-6.216;2023-04-25T06:27:02;6.22;;;3.80;;
42590;SDS011;28218;53.342;-6.216;2023-04-25T06:29:30;10.00;;;4.38;;
42590;SDS011;28218;53.342;-6.216;2023-04-25T06:32:00;8.30;;;4.03;;
42590;SDS011;28218;53.342;-6.216;2023-04-25T06:34:28;9.50;;;4.25;;
42590;SDS011;28218;53.342;-6.216;2023-04-25T06:36:56;6.63;;;4.55;;
42590;SDS011;28218;53.342;-6.216;2023-04-25T06:39:24;7.47;;;3.70;;
42590;SDS011;28218;53.342;-6.216;2023-04-25T06:41:53;9.35;;;5.00;;
42590;SDS011;28218;53.342;-6.216;2023-04-25T06:44:21;6.32;;;4.28;;
42590;SDS011;28218;53.342;-6.216;2023-04-25T06:46:52;7.70;;;4.28;;
42590;SDS011;28218;53.342;-6.216;2023-04-25T06:49:22;10.38;;;5.00;;
42590;SDS011;28218;53.342;-6.216;2023-04-25T06:51:50;7.50;;;4.00;;
42590;SDS011;28218;53.342;-6.216;2023-04-25T06:54:19;8.52;;;4.70;;
42590;SDS011;28218;53.342;-6.216;2023-04-25T06:56:47;9.85;;;4.80;;
42590;SDS011;28218;53.342;-6.216;2023-04-25T06:59:16;7.13;;;4.63;;
42590;SDS011;28218;53.342;-6.216;2023-04-25T07:01:44;12.57;;;4.63;;
42590;SDS011;28218;53.342;-6.216;2023-04-25T07:04:13;11.27;;;4.82;;
42590;SDS011;28218;53.342;-6.216;2023-04-25T07:06:43;7.07;;;4.55;;
42590;SDS011;28218;53.342;-6.216;2023-04-25T07:09:14;9.27;;;5.72;;
42590;SDS011;28218;53.342;-6.216;2023-04-25T07:11:42;18.95;;;8.18;;
42590;SDS011;28218;53.342;-6.216;2023-04-25T07:14:10;9.68;;;4.13;;
42590;SDS011;28218;53.342;-6.216;2023-04-25T07:16:38;9.23;;;3.53;;
42590;SDS011;28218;53.342;-6.216;2023-04-25T07:19:07;7.80;;;3.40;;
42590;SDS011;28218;53.342;-6.216;2023-04-25T07:21:35;6.97;;;3.75;;
42590;SDS011;28218;53.342;-6.216;2023-04-25T07:24:05;10.10;;;3.65;;
42590;SDS011;28218;53.342;-6.216;2023-04-25T07:26:34;14.05;;;4.40;;
42590;SDS011;28218;53.342;-6.216;2023-04-25T07:29:02;15.30;;;4.60;;
42590;SDS011;28218;53.342;-6.216;2023-04-25T07:31:31;9.18;;;3.85;;
42590;SDS011;28218;53.342;-6.216;2023-04-25T07:33:59;9.68;;;3.63;;
42590;SDS011;28218;53.342;-6.216;2023-04-25T07:36:27;8.70;;;3.47;;
42590;SDS011;28218;53.342;-6.216;2023-04-25T07:38:57;19.08;;;3.75;;
42590;SDS011;28218;53.342;-6.216;2023-04-25T07:41:27;10.10;;;3.35;;
42590;SDS011;28218;53.342;-6.216;2023-04-25T07:43:55;11.55;;;4.53;;
42590;SDS011;28218;53.342;-6.216;2023-04-25T07:46:23;12.07;;;3.53;;
42590;SDS011;28218;53.342;-6.216;2023-04-25T07:48:52;8.40;;;3.83;;
42590;SDS011;28218;53.342;-6.216;2023-04-25T07:51:20;11.02;;;3.58;;
42590;SDS011;28218;53.342;-6.216;2023-04-25T07:53:48;13.60;;;3.13;;
42590;SDS011;28218;53.342;-6.216;2023-04-25T07:56:17;10.60;;;3.13;;
42590;SDS011;28218;53.342;-6.216;2023-04-25T07:58:46;10.77;;;3.15;;
42590;SDS011;28218;53.342;-6.216;2023-04-25T08:01:15;14.30;;;2.90;;
42590;SDS011;28218;53.342;-6.216;2023-04-25T08:03:43;12.00;;;3.80;;
42590;SDS011;28218;53.342;-6.216;2023-04-25T08:06:12;10.38;;;3.30;;
42590;SDS011;28218;53.342;-6.216;2023-04-25T08:08:40;8.18;;;3.08;;
42590;SDS011;28218;53.342;-6.216;2023-04-25T08:11:09;8.07;;;3.10;;
42590;SDS011;28218;53.342;-6.216;2023-04-25T08:13:37;6.72;;;2.15;;
42590;SDS011;28218;53.342;-6.216;2023-04-25T08:16:06;5.65;;;2.33;;
42590;SDS011;28218;53.342;-6.216;2023-04-25T08:18:35;6.65;;;2.40;;
42590;SDS011;28218;53.342;-6.216;2023-04-25T08:21:03;19.63;;;3.00;;
42590;SDS011;28218;53.342;-6.216;2023-04-25T08:27:32;8.85;;;4.07;;
42590;SDS011;28218;53.342;-6.216;2023-04-25T08:30:00;9.07;;;3.10;;
42590;SDS011;28218;53.342;-6.216;2023-04-25T08:32:31;7.82;;;2.30;;
42590;SDS011;28218;53.342;-6.216;2023-04-25T08:35:00;6.50;;;2.13;;
42590;SDS011;28218;53.342;-6.216;2023-04-25T08:37:29;5.03;;;1.77;;
42590;SDS011;28218;53.342;-6.216;2023-04-25T08:39:57;13.07;;;4.78;;
42590;SDS011;28218;53.342;-6.216;2023-04-25T08:42:26;8.80;;;3.78;;
42590;SDS011;28218;53.342;-6.216;2023-04-25T08:44:56;11.15;;;3.15;;
42590;SDS011;28218;53.342;-6.216;2023-04-25T08:47:29;8.73;;;3.45;;
42590;SDS011;28218;53.342;-6.216;2023-04-25T08:50:02;8.82;;;2.20;;
42590;SDS011;28218;53.342;-6.216;2023-04-25T08:52:35;7.50;;;2.28;;
42590;SDS011;28218;53.342;-6.216;2023-04-25T08:55:05;10.80;;;2.10;;
42590;SDS011;28218;53.342;-6.216;2023-04-25T08:57:37;7.30;;;2.20;;
42590;SDS011;28218;53.342;-6.216;2023-04-25T09:00:07;8.27;;;2.08;;
42590;SDS011;28218;53.342;-6.216;2023-04-25T09:02:37;4.90;;;1.70;;
42590;SDS011;28218;53.342;-6.216;2023-04-25T09:05:08;5.55;;;1.90;;
42590;SDS011;28218;53.342;-6.216;2023-04-25T09:07:37;5.60;;;2.40;;
42590;SDS011;28218;53.342;-6.216;2023-04-25T09:10:06;7.47;;;1.90;;
42590;SDS011;28218;53.342;-6.216;2023-04-25T09:12:34;10.40;;;2.97;;
42590;SDS011;28218;53.342;-6.216;2023-04-25T09:15:04;8.13;;;2.40;;
42590;SDS011;28218;53.342;-6.216;2023-04-25T09:17:34;7.20;;;2.78;;
42590;SDS011;28218;53.342;-6.216;2023-04-25T09:20:13;6.65;;;2.50;;
42590;SDS011;28218;53.342;-6.216;2023-04-25T09:22:42;9.10;;;2.40;;
42590;SDS011;28218;53.342;-6.216;2023-04-25T09:27:48;8.57;;;3.08;;
42590;SDS011;28218;53.342;-6.216;2023-04-25T09:30:18;8.60;;;2.85;;
42590;SDS011;28218;53.342;-6.216;2023-04-25T09:32:56;10.88;;;2.90;;
42590;SDS011;28218;53.342;-6.216;2023-04-25T09:35:26;5.32;;;2.60;;
42590;SDS011;28218;53.342;-6.216;2023-04-25T09:37:55;5.18;;;2.58;;
42590;SDS011;28218;53.342;-6.216;2023-04-25T09:40:23;6.97;;;2.33;;
42590;SDS011;28218;53.342;-6.216;2023-04-25T09:42:51;8.98;;;2.75;;
42590;SDS011;28218;53.342;-6.216;2023-04-25T09:45:20;3.50;;;1.80;;
42590;SDS011;28218;53.342;-6.216;2023-04-25T09:47:49;12.80;;;2.13;;
42590;SDS011;28218;53.342;-6.216;2023-04-25T09:50:18;9.32;;;2.72;;
42590;SDS011;28218;53.342;-6.216;2023-04-25T09:52:48;3.65;;;1.65;;
42590;SDS011;28218;53.342;-6.216;2023-04-25T09:55:30;3.25;;;2.05;;
42590;SDS011;28218;53.342;-6.216;2023-04-25T09:58:01;4.93;;;2.03;;
42590;SDS011;28218;53.342;-6.216;2023-04-25T10:00:33;10.95;;;2.83;;
42590;SDS011;28218;53.342;-6.216;2023-04-25T10:03:02;9.50;;;2.35;;
42590;SDS011;28218;53.342;-6.216;2023-04-25T10:05:32;7.28;;;2.58;;
42590;SDS011;28218;53.342;-6.216;2023-04-25T10:08:03;5.32;;;2.08;;
42590;SDS011;28218;53.342;-6.216;2023-04-25T10:10:34;3.67;;;2.05;;
42590;SDS011;28218;53.342;-6.216;2023-04-25T10:13:04;13.65;;;2.20;;
42590;SDS011;28218;53.342;-6.216;2023-04-25T10:15:34;5.18;;;1.80;;
42590;SDS011;28218;53.342;-6.216;2023-04-25T10:18:06;7.68;;;1.80;;
42590;SDS011;28218;53.342;-6.216;2023-04-25T10:20:34;7.07;;;2.35;;
42590;SDS011;28218;53.342;-6.216;2023-04-25T10:23:06;7.15;;;2.22;;
42590;SDS011;28218;53.342;-6.216;2023-04-25T10:25:41;6.75;;;1.83;;
42590;SDS011;28218;53.342;-6.216;2023-04-25T10:28:10;8.02;;;2.47;;
42590;SDS011;28218;53.342;-6.216;2023-04-25T10:30:38;4.85;;;1.70;;
42590;SDS011;28218;53.342;-6.216;2023-04-25T10:33:34;9.85;;;1.70;;
42590;SDS011;28218;53.342;-6.216;2023-04-25T10:36:12;5.80;;;1.37;;
42590;SDS011;28218;53.342;-6.216;2023-04-25T10:38:43;9.20;;;1.60;;
42590;SDS011;28218;53.342;-6.216;2023-04-25T10:43:42;6.97;;;2.15;;
42590;SDS011;28218;53.342;-6.216;2023-04-25T10:46:17;7.57;;;2.17;;
42590;SDS011;28218;53.342;-6.216;2023-04-25T10:48:47;6.57;;;1.73;;
42590;SDS011;28218;53.342;-6.216;2023-04-25T10:51:18;7.30;;;1.55;;
42590;SDS011;28218;53.342;-6.216;2023-04-25T10:53:57;4.50;;;1.10;;
42590;SDS011;28218;53.342;-6.216;2023-04-25T10:56:27;9.55;;;1.50;;
42590;SDS011;28218;53.342;-6.216;2023-04-25T10:59:05;2.43;;;1.40;;
42590;SDS011;28218;53.342;-6.216;2023-04-25T11:01:37;6.90;;;1.67;;
42590;SDS011;28218;53.342;-6.216;2023-04-25T11:04:19;4.82;;;1.30;;
42590;SDS011;28218;53.342;-6.216;2023-04-25T11:06:53;13.35;;;3.28;;
42590;SDS011;28218;53.342;-6.216;2023-04-25T11:09:35;8.23;;;2.58;;
42590;SDS011;28218;53.342;-6.216;2023-04-25T11:12:04;8.85;;;2.05;;
42590;SDS011;28218;53.342;-6.216;2023-04-25T11:14:35;4.45;;;1.40;;
42590;SDS011;28218;53.342;-6.216;2023-04-25T11:17:03;11.32;;;2.05;;
42590;SDS011;28218;53.342;-6.216;2023-04-25T11:19:32;7.40;;;1.80;;
42590;SDS011;28218;53.342;-6.216;2023-04-25T11:22:03;6.60;;;1.77;;
42590;SDS011;28218;53.342;-6.216;2023-04-25T11:24:35;8.90;;;1.95;;
42590;SDS011;28218;53.342;-6.216;2023-04-25T11:27:04;5.20;;;1.37;;
42590;SDS011;28218;53.342;-6.216;2023-04-25T11:29:33;4.78;;;1.50;;
42590;SDS011;28218;53.342;-6.216;2023-04-25T11:32:02;8.15;;;1.70;;
42590;SDS011;28218;53.342;-6.216;2023-04-25T11:34:31;5.45;;;1.83;;
42590;SDS011;28218;53.342;-6.216;2023-04-25T11:37:01;9.52;;;1.48;;
42590;SDS011;28218;53.342;-6.216;2023-04-25T11:39:30;12.48;;;2.05;;
42590;SDS011;28218;53.342;-6.216;2023-04-25T11:41:59;4.30;;;2.10;;
42590;SDS011;28218;53.342;-6.216;2023-04-25T11:44:33;8.30;;;3.05;;
42590;SDS011;28218;53.342;-6.216;2023-04-25T11:47:01;6.03;;;2.30;;
42590;SDS011;28218;53.342;-6.216;2023-04-25T11:49:30;40.15;;;4.03;;
42590;SDS011;28218;53.342;-6.216;2023-04-25T11:51:59;6.35;;;2.17;;
42590;SDS011;28218;53.342;-6.216;2023-04-25T11:54:27;4.60;;;1.58;;
42590;SDS011;28218;53.342;-6.216;2023-04-25T11:56:55;4.60;;;1.77;;
42590;SDS011;28218;53.342;-6.216;2023-04-25T11:59:25;6.03;;;1.70;;
42590;SDS011;28218;53.342;-6.216;2023-04-25T12:01:54;6.70;;;2.33;;
42590;SDS011;28218;53.342;-6.216;2023-04-25T12:04:24;12.68;;;2.08;;
42590;SDS011;28218;53.342;-6.216;2023-04-25T12:06:53;14.68;;;2.58;;
42590;SDS011;28218;53.342;-6.216;2023-04-25T12:09:27;6.80;;;2.08;;
42590;SDS011;28218;53.342;-6.216;2023-04-25T12:11:57;17.42;;;2.13;;
42590;SDS011;28218;53.342;-6.216;2023-04-25T12:14:31;7.65;;;2.17;;
42590;SDS011;28218;53.342;-6.216;2023-04-25T12:17:02;11.68;;;2.03;;
42590;SDS011;28218;53.342;-6.216;2023-04-25T12:19:35;4.10;;;1.70;;
42590;SDS011;28218;53.342;-6.216;2023-04-25T12:22:18;9.48;;;1.92;;
42590;SDS011;28218;53.342;-6.216;2023-04-25T12:24:48;5.00;;;1.60;;
42590;SDS011;28218;53.342;-6.216;2023-04-25T12:27:16;7.75;;;1.63;;
42590;SDS011;28218;53.342;-6.216;2023-04-25T12:29:54;8.93;;;2.15;;
42590;SDS011;28218;53.342;-6.216;2023-04-25T12:32:23;6.10;;;1.75;;
42590;SDS011;28218;53.342;-6.216;2023-04-25T12:34:52;10.73;;;2.42;;
42590;SDS011;28218;53.342;-6.216;2023-04-25T12:37:21;8.95;;;1.95;;
42590;SDS011;28218;53.342;-6.216;2023-04-25T12:39:49;3.28;;;1.50;;
42590;SDS011;28218;53.342;-6.216;2023-04-25T12:42:19;7.55;;;1.52;;
42590;SDS011;28218;53.342;-6.216;2023-04-25T12:44:47;11.32;;;2.20;;
42590;SDS011;28218;53.342;-6.216;2023-04-25T12:47:17;6.75;;;1.70;;
42590;SDS011;28218;53.342;-6.216;2023-04-25T12:49:45;7.88;;;2.25;;
42590;SDS011;28218;53.342;-6.216;2023-04-25T12:52:13;17.15;;;2.72;;
42590;SDS011;28218;53.342;-6.216;2023-04-25T12:54:42;6.82;;;1.58;;
42590;SDS011;28218;53.342;-6.216;2023-04-25T12:57:10;11.88;;;2.03;;
42590;SDS011;28218;53.342;-6.216;2023-04-25T12:59:38;4.97;;;1.75;;
42590;SDS011;28218;53.342;-6.216;2023-04-25T13:02:07;6.00;;;2.28;;
42590;SDS011;28218;53.342;-6.216;2023-04-25T13:04:37;11.15;;;1.55;;
42590;SDS011;28218;53.342;-6.216;2023-04-25T13:07:05;10.60;;;1.73;;
42590;SDS011;28218;53.342;-6.216;2023-04-25T13:09:33;7.13;;;2.10;;
42590;SDS011;28218;53.342;-6.216;2023-04-25T13:12:01;8.35;;;2.05;;
42590;SDS011;28218;53.342;-6.216;2023-04-25T13:14:30;6.55;;;2.08;;
42590;SDS011;28218;53.342;-6.216;2023-04-25T13:16:59;13.63;;;2.30;;
42590;SDS011;28218;53.342;-6.216;2023-04-25T13:19:27;14.73;;;2.58;;
42590;SDS011;28218;53.342;-6.216;2023-04-25T13:21:57;13.25;;;2.70;;
42590;SDS011;28218;53.342;-6.216;2023-04-25T13:24:25;12.63;;;2.13;;
42590;SDS011;28218;53.342;-6.216;2023-04-25T13:26:54;9.27;;;2.38;;
42590;SDS011;28218;53.342;-6.216;2023-04-25T13:29:22;7.90;;;2.92;;
42590;SDS011;28218;53.342;-6.216;2023-04-25T13:31:50;16.77;;;2.78;;
42590;SDS011;28218;53.342;-6.216;2023-04-25T13:34:18;12.32;;;3.30;;
42590;SDS011;28218;53.342;-6.216;2023-04-25T13:36:47;12.80;;;3.53;;
42590;SDS011;28218;53.342;-6.216;2023-04-25T13:39:17;14.18;;;3.30;;
42590;SDS011;28218;53.342;-6.216;2023-04-25T13:41:45;32.83;;;4.38;;
42590;SDS011;28218;53.342;-6.216;2023-04-25T13:44:13;6.00;;;2.53;;
42590;SDS011;28218;53.342;-6.216;2023-04-25T13:46:43;11.00;;;2.58;;
42590;SDS011;28218;53.342;-6.216;2023-04-25T13:49:13;15.45;;;3.38;;
42590;SDS011;28218;53.342;-6.216;2023-04-25T13:51:42;12.40;;;2.65;;
42590;SDS011;28218;53.342;-6.216;2023-04-25T13:54:10;8.80;;;2.50;;
42590;SDS011;28218;53.342;-6.216;2023-04-25T13:56:40;15.38;;;2.67;;
42590;SDS011;28218;53.342;-6.216;2023-04-25T13:59:09;16.55;;;2.63;;
42590;SDS011;28218;53.342;-6.216;2023-04-25T14:01:37;10.93;;;3.08;;
42590;SDS011;28218;53.342;-6.216;2023-04-25T14:04:06;18.50;;;2.90;;
42590;SDS011;28218;53.342;-6.216;2023-04-25T14:06:34;11.70;;;2.67;;
42590;SDS011;28218;53.342;-6.216;2023-04-25T14:09:03;12.32;;;3.25;;
42590;SDS011;28218;53.342;-6.216;2023-04-25T14:11:33;10.50;;;3.47;;
42590;SDS011;28218;53.342;-6.216;2023-04-25T14:14:03;12.32;;;2.90;;
42590;SDS011;28218;53.342;-6.216;2023-04-25T14:16:31;12.07;;;2.92;;
42590;SDS011;28218;53.342;-6.216;2023-04-25T14:18:59;13.02;;;2.83;;
42590;SDS011;28218;53.342;-6.216;2023-04-25T14:21:28;15.30;;;2.80;;
42590;SDS011;28218;53.342;-6.216;2023-04-25T14:23:59;10.67;;;2.43;;
42590;SDS011;28218;53.342;-6.216;2023-04-25T14:26:27;23.73;;;3.38;;
42590;SDS011;28218;53.342;-6.216;2023-04-25T14:28:55;13.38;;;3.38;;
42590;SDS011;28218;53.342;-6.216;2023-04-25T14:31:25;14.85;;;2.38;;
42590;SDS011;28218;53.342;-6.216;2023-04-25T14:33:53;13.40;;;2.80;;
42590;SDS011;28218;53.342;-6.216;2023-04-25T14:36:25;8.23;;;2.10;;
42590;SDS011;28218;53.342;-6.216;2023-04-25T14:38:53;20.33;;;3.00;;
42590;SDS011;28218;53.342;-6.216;2023-04-25T14:41:22;13.70;;;3.17;;
42590;SDS011;28218;53.342;-6.216;2023-04-25T14:43:51;27.95;;;3.85;;
42590;SDS011;28218;53.342;-6.216;2023-04-25T14:46:20;25.70;;;2.55;;
42590;SDS011;28218;53.342;-6.216;2023-04-25T14:48:51;12.52;;;2.15;;
42590;SDS011;28218;53.342;-6.216;2023-04-25T14:51:19;10.27;;;3.20;;
42590;SDS011;28218;53.342;-6.216;2023-04-25T14:53:48;6.45;;;2.10;;